createdAt,value
2022-08-16T00:01:24.458Z,70.18
2022-08-16T00:03:52.479Z,70.33
2022-08-16T00:06:19.168Z,70.53
2022-08-16T00:08:46.148Z,70.69
2022-08-16T00:11:15.984Z,71.06
2022-08-16T00:13:54.000Z,71.63
2022-08-16T00:17:00.776Z,72.59
2022-08-16T00:19:22.482Z,73.03
2022-08-16T00:21:52.040Z,74.15
2022-08-16T00:24:31.110Z,74.44
2022-08-16T00:27:01.049Z,75.39
2022-08-16T00:29:29.675Z,74.83
2022-08-16T00:32:01.073Z,75.21
2022-08-16T00:34:44.029Z,75.38
2022-08-16T00:37:20.790Z,75.96
2022-08-16T00:39:58.020Z,75.52
2022-08-16T00:42:30.370Z,76.04
2022-08-16T00:45:28.440Z,75.28
2022-08-16T00:47:55.933Z,75.73
2022-08-16T00:50:36.057Z,76.49
2022-08-16T00:53:06.161Z,75.91
2022-08-16T00:55:38.100Z,76.35
2022-08-16T00:58:13.236Z,76.17
2022-08-16T01:00:44.468Z,75.92
2022-08-16T01:03:30.280Z,76.33
2022-08-16T01:05:59.042Z,76.83
2022-08-16T01:08:36.031Z,77.03
2022-08-16T01:11:05.361Z,77.23
2022-08-16T01:13:36.593Z,77.77
2022-08-16T01:16:10.246Z,78.06
2022-08-16T01:18:44.345Z,78.00
2022-08-16T01:21:36.161Z,78.32
2022-08-16T01:24:51.526Z,78.52
2022-08-16T01:27:48.560Z,78.92
2022-08-16T01:30:26.068Z,78.98
2022-08-16T01:33:02.765Z,79.39
2022-08-16T01:35:56.158Z,79.32
2022-08-16T01:38:25.690Z,79.20
2022-08-16T01:41:02.034Z,79.54
2022-08-16T01:43:31.275Z,79.38
2022-08-16T01:46:29.943Z,79.48
2022-08-16T01:48:48.813Z,79.40
2022-08-16T01:51:18.686Z,79.62
2022-08-16T01:53:55.196Z,79.13
2022-08-16T01:56:24.608Z,78.94
2022-08-16T01:58:54.997Z,78.97
2022-08-16T02:01:22.552Z,78.98
2022-08-16T02:03:51.908Z,79.15
2022-08-16T02:06:34.640Z,79.35
2022-08-16T02:09:07.277Z,80.17
2022-08-16T02:11:48.101Z,80.03
2022-08-16T02:14:21.496Z,80.26
2022-08-16T02:16:49.431Z,80.19
2022-08-16T02:19:18.614Z,80.13
2022-08-16T02:22:07.795Z,80.57
2022-08-16T02:24:41.269Z,80.49
2022-08-16T02:27:10.848Z,80.63
2022-08-16T02:29:38.348Z,80.97
2022-08-16T02:32:50.819Z,80.98
2022-08-16T02:34:57.278Z,81.35
2022-08-16T02:37:24.139Z,81.41
2022-08-16T02:40:16.307Z,81.18
2022-08-16T02:42:50.054Z,81.75
2022-08-16T02:45:20.191Z,81.06
2022-08-16T02:48:00.577Z,81.57
2022-08-16T02:50:54.088Z,82.23
2022-08-16T02:53:23.664Z,82.24
2022-08-16T02:55:51.358Z,82.01
2022-08-16T02:58:19.877Z,82.50
2022-08-16T03:00:53.919Z,83.03
2022-08-16T03:03:23.131Z,82.77
2022-08-16T03:05:52.509Z,82.95
2022-08-16T03:08:51.730Z,83.14
2022-08-16T03:11:16.977Z,83.57
2022-08-16T03:13:56.438Z,83.22
2022-08-16T03:16:38.789Z,82.84
2022-08-16T03:19:09.613Z,83.22
2022-08-16T03:21:38.606Z,82.67
2022-08-16T03:24:27.687Z,82.68
2022-08-16T03:26:58.160Z,82.24
2022-08-16T03:29:31.555Z,82.09
2022-08-16T03:32:01.389Z,82.36
2022-08-16T03:34:29.640Z,81.97
2022-08-16T03:36:57.525Z,81.84
2022-08-16T03:39:24.757Z,81.73
2022-08-16T03:41:59.972Z,82.25
2022-08-16T03:44:40.657Z,81.82
2022-08-16T03:47:12.372Z,82.32
2022-08-16T03:49:39.473Z,81.97
2022-08-16T03:52:07.269Z,81.77
2022-08-16T03:54:35.904Z,81.56
2022-08-16T03:57:04.941Z,81.80
2022-08-16T03:59:32.463Z,82.00
2022-08-16T04:02:00.939Z,82.26
2022-08-16T04:04:33.463Z,81.77
2022-08-16T04:07:02.780Z,82.16
2022-08-16T04:09:35.570Z,82.05
2022-08-16T04:12:11.051Z,81.62
2022-08-16T04:14:46.903Z,82.04
2022-08-16T04:17:17.136Z,82.42
2022-08-16T04:19:47.442Z,82.53
2022-08-16T04:22:19.612Z,81.84
2022-08-16T04:24:54.256Z,81.79
2022-08-16T04:27:24.399Z,81.50
2022-08-16T04:29:55.366Z,81.24
2022-08-16T04:32:30.036Z,80.71
2022-08-16T04:34:56.746Z,80.84
2022-08-16T04:37:23.370Z,80.44
2022-08-16T04:39:55.297Z,79.71
2022-08-16T04:42:26.308Z,79.83
2022-08-16T04:44:57.701Z,79.25
2022-08-16T04:47:35.545Z,78.99
2022-08-16T04:50:22.515Z,78.82
2022-08-16T04:52:57.935Z,78.16
2022-08-16T04:55:37.819Z,77.98
2022-08-16T04:58:43.959Z,76.68
2022-08-16T05:00:53.592Z,77.42
2022-08-16T05:03:21.452Z,76.74
2022-08-16T05:05:55.908Z,75.16
2022-08-16T05:08:30.799Z,75.48
2022-08-16T05:11:05.519Z,74.73
2022-08-16T05:13:40.069Z,74.85
2022-08-16T05:16:20.226Z,74.12
2022-08-16T05:18:50.358Z,73.55
2022-08-16T05:21:17.100Z,73.10
2022-08-16T05:23:55.848Z,72.37
2022-08-16T05:26:27.869Z,72.90
2022-08-16T05:28:56.060Z,71.95
2022-08-16T05:31:29.191Z,71.72
2022-08-16T05:34:00.846Z,70.83
2022-08-16T05:36:33.921Z,68.36
2022-08-16T05:39:08.856Z,68.05
2022-08-16T05:41:45.373Z,65.67
2022-08-16T05:44:24.051Z,66.33
2022-08-16T05:46:57.044Z,65.82
2022-08-16T05:49:26.186Z,64.90
2022-08-16T05:52:11.456Z,64.12
2022-08-16T05:54:46.666Z,64.18
2022-08-16T05:57:16.812Z,63.42
2022-08-16T05:59:43.739Z,62.22
2022-08-16T06:02:10.377Z,62.33
2022-08-16T06:04:37.965Z,60.33
2022-08-16T06:07:24.262Z,61.39
2022-08-16T06:09:52.739Z,61.34
2022-08-16T06:12:26.804Z,60.78
2022-08-16T06:14:59.073Z,60.52
2022-08-16T06:17:42.857Z,60.19
2022-08-16T06:20:18.410Z,59.68
2022-08-16T06:22:59.047Z,58.89
2022-08-16T06:25:35.817Z,59.12
2022-08-16T06:28:08.777Z,59.43
2022-08-16T06:30:43.535Z,60.50
2022-08-16T06:33:13.034Z,60.45
2022-08-16T06:35:47.251Z,61.23
2022-08-16T06:38:31.922Z,62.50
2022-08-16T06:41:01.104Z,61.79
2022-08-16T06:43:29.177Z,62.14
2022-08-16T06:45:56.201Z,61.03
2022-08-16T06:48:32.445Z,61.67
2022-08-16T06:51:02.250Z,62.36
2022-08-16T06:53:29.713Z,64.20
2022-08-16T06:55:58.725Z,63.41
2022-08-16T06:58:31.635Z,61.35
2022-08-16T07:01:00.119Z,59.48
2022-08-16T07:03:32.591Z,60.15
2022-08-16T07:06:00.089Z,59.19
2022-08-16T07:08:28.033Z,60.62
2022-08-16T07:10:56.034Z,59.88
2022-08-16T07:13:57.958Z,59.93
2022-08-16T07:16:15.312Z,59.52
2022-08-16T07:18:58.105Z,59.12
2022-08-16T07:21:28.208Z,59.50
2022-08-16T07:24:29.549Z,57.70
2022-08-16T07:26:56.933Z,57.11
2022-08-16T07:29:23.759Z,57.21
2022-08-16T07:31:50.473Z,58.40
2022-08-16T07:34:20.869Z,57.93
2022-08-16T07:37:07.632Z,57.23
2022-08-16T07:39:36.079Z,56.76
2022-08-16T07:42:20.068Z,56.80
2022-08-16T07:44:52.668Z,54.95
2022-08-16T07:47:19.549Z,53.45
2022-08-16T07:49:57.926Z,51.40
2022-08-16T07:52:29.762Z,52.52
2022-08-16T07:54:57.706Z,51.80
2022-08-16T07:57:25.288Z,51.22
2022-08-16T07:59:53.533Z,51.15
2022-08-16T08:02:27.419Z,49.69
2022-08-16T08:04:55.934Z,50.08
2022-08-16T08:07:27.490Z,48.71
2022-08-16T08:09:56.187Z,48.55
2022-08-16T08:12:32.383Z,48.00
2022-08-16T08:15:10.330Z,47.83
2022-08-16T08:17:43.123Z,48.11
2022-08-16T08:20:20.781Z,47.20
2022-08-16T08:23:00.983Z,46.62
2022-08-16T08:25:53.488Z,48.39
2022-08-16T08:28:18.476Z,47.13
2022-08-16T08:30:52.272Z,47.86
2022-08-16T08:33:28.608Z,45.99
2022-08-16T08:36:01.101Z,47.04
2022-08-16T08:38:45.580Z,47.28
2022-08-16T08:41:18.343Z,47.80
2022-08-16T08:43:46.247Z,47.41
2022-08-16T08:46:18.195Z,47.42
2022-08-16T08:49:00.150Z,46.74
2022-08-16T08:51:35.492Z,46.52
2022-08-16T08:54:06.821Z,46.48
2022-08-16T08:56:37.826Z,47.19
2022-08-16T08:59:19.851Z,46.04
2022-08-16T09:01:57.280Z,45.46
2022-08-16T09:04:26.925Z,43.46
2022-08-16T09:06:54.695Z,43.30
2022-08-16T09:09:23.172Z,42.43
2022-08-16T09:12:03.914Z,42.19
2022-08-16T09:14:34.640Z,42.93
2022-08-16T09:17:14.060Z,41.35
2022-08-16T09:19:52.640Z,42.65
2022-08-16T09:22:23.151Z,42.34
2022-08-16T09:24:53.474Z,41.61
2022-08-16T09:27:25.321Z,42.63
2022-08-16T09:30:00.281Z,42.38
2022-08-16T09:32:30.574Z,40.87
2022-08-16T09:34:59.548Z,40.95
2022-08-16T09:37:29.206Z,40.50
2022-08-16T09:40:00.952Z,40.94
2022-08-16T09:42:28.941Z,40.76
2022-08-16T09:45:11.068Z,41.17
2022-08-16T09:47:56.591Z,40.33
2022-08-16T09:50:33.221Z,39.05
2022-08-16T09:53:07.579Z,38.14
2022-08-16T09:55:49.004Z,38.86
2022-08-16T09:58:41.933Z,39.20
2022-08-16T10:01:03.359Z,38.91
2022-08-16T10:03:30.519Z,37.74
2022-08-16T10:05:57.447Z,37.29
2022-08-16T10:08:27.057Z,36.97
2022-08-16T10:11:12.685Z,38.11
2022-08-16T10:13:41.619Z,37.31
2022-08-16T10:16:09.224Z,37.19
2022-08-16T10:19:00.247Z,37.11
2022-08-16T10:21:24.044Z,37.25
2022-08-16T10:23:54.881Z,35.56
2022-08-16T10:27:18.381Z,35.68
2022-08-16T10:29:11.944Z,34.47
2022-08-16T10:31:53.524Z,35.57
2022-08-16T10:34:31.241Z,35.72
2022-08-16T10:37:02.101Z,36.10
2022-08-16T10:39:40.506Z,35.97
2022-08-16T10:42:09.932Z,36.02
2022-08-16T10:44:36.859Z,34.36
2022-08-16T10:47:04.227Z,33.54
2022-08-16T10:49:32.368Z,34.84
2022-08-16T10:52:01.131Z,34.90
2022-08-16T10:54:31.128Z,34.53
2022-08-16T10:57:04.151Z,33.99
2022-08-16T10:59:47.031Z,34.67
2022-08-16T11:03:00.805Z,35.20
2022-08-16T11:05:13.953Z,34.47
2022-08-16T11:07:51.497Z,34.57
2022-08-16T11:19:06.140Z,34.30
2022-08-16T11:22:23.146Z,35.25
2022-08-16T11:24:41.558Z,34.77
2022-08-16T11:27:24.062Z,34.38
2022-08-16T11:29:59.332Z,34.68
2022-08-16T11:32:32.397Z,35.39
2022-08-16T11:35:13.982Z,35.23
2022-08-16T11:40:44.715Z,35.27
2022-08-16T11:43:16.477Z,34.42
2022-08-16T11:45:44.262Z,33.54
2022-08-16T11:48:27.015Z,33.46
2022-08-16T11:50:54.890Z,33.61
2022-08-16T11:53:22.096Z,34.51
2022-08-16T11:55:50.650Z,34.05
2022-08-16T11:58:26.122Z,34.69
2022-08-16T12:00:57.571Z,35.25
2022-08-16T12:03:31.625Z,34.43
2022-08-16T12:06:10.842Z,34.75
2022-08-16T12:08:40.161Z,34.63
2022-08-16T12:11:08.213Z,35.58
2022-08-16T12:13:36.375Z,34.16
2022-08-16T12:16:04.586Z,34.07
2022-08-16T12:18:31.665Z,34.88
2022-08-16T12:20:58.468Z,34.10
2022-08-16T12:23:26.954Z,34.24
2022-08-16T12:25:53.900Z,33.41
2022-08-16T12:28:36.659Z,33.46
2022-08-16T12:31:07.713Z,32.80
2022-08-16T12:33:42.800Z,33.88
2022-08-16T12:36:13.216Z,33.23
2022-08-16T12:38:48.105Z,33.12
2022-08-16T12:41:24.716Z,32.58
2022-08-16T12:43:52.672Z,33.26
2022-08-16T12:46:25.207Z,32.23
2022-08-16T12:48:58.148Z,31.21
2022-08-16T12:51:58.695Z,32.48
2022-08-16T12:54:23.599Z,33.30
2022-08-16T12:56:50.768Z,32.78
2022-08-16T12:59:20.329Z,32.32
2022-08-16T13:01:47.828Z,35.13
2022-08-16T13:04:20.500Z,35.71
2022-08-16T13:06:50.178Z,35.91
2022-08-16T13:09:26.158Z,35.52
2022-08-16T13:12:16.063Z,35.76
2022-08-16T13:14:44.152Z,36.16
2022-08-16T13:17:18.775Z,35.63
2022-08-16T13:22:36.612Z,34.33
2022-08-16T13:25:06.475Z,34.86
2022-08-16T13:27:59.108Z,33.12
2022-08-16T13:30:36.079Z,33.11
2022-08-16T13:33:10.409Z,33.44
2022-08-16T13:35:38.452Z,32.97
2022-08-16T13:38:10.362Z,32.61
2022-08-16T13:40:48.785Z,32.71
2022-08-16T13:43:18.154Z,33.30
2022-08-16T13:45:45.232Z,32.84
2022-08-16T13:48:21.805Z,33.37
2022-08-16T13:50:52.971Z,33.42
2022-08-16T13:53:24.401Z,33.11
2022-08-16T13:55:58.524Z,32.36
2022-08-16T13:58:36.384Z,32.22
2022-08-16T14:01:09.961Z,31.18
2022-08-16T14:03:37.490Z,31.86
2022-08-16T14:06:04.199Z,31.89
2022-08-16T14:08:30.870Z,32.51
2022-08-16T14:10:57.630Z,30.00
2022-08-16T14:13:24.436Z,29.98
2022-08-16T14:15:51.669Z,29.36
2022-08-16T14:18:20.379Z,30.13
2022-08-16T14:20:48.519Z,31.00
2022-08-16T14:23:15.910Z,31.93
2022-08-16T14:25:42.858Z,32.40
2022-08-16T14:28:20.488Z,32.74
2022-08-16T14:30:50.495Z,32.53
2022-08-16T14:33:18.812Z,32.85
2022-08-16T14:35:49.196Z,32.48
2022-08-16T14:38:19.235Z,32.28
2022-08-16T14:40:55.452Z,33.01
2022-08-16T14:43:24.891Z,33.22
2022-08-16T14:45:54.836Z,33.70
2022-08-16T14:48:25.836Z,32.99
2022-08-16T14:50:54.774Z,33.08
2022-08-16T14:53:23.798Z,33.22
2022-08-16T14:55:50.792Z,33.22
2022-08-16T14:58:19.652Z,32.70
2022-08-16T15:00:47.819Z,32.79
2022-08-16T15:03:19.320Z,32.35
2022-08-16T15:05:48.483Z,31.16
2022-08-16T15:08:20.298Z,30.59
2022-08-16T15:10:47.589Z,30.65
2022-08-16T15:13:14.910Z,30.04
2022-08-16T15:15:43.410Z,29.76
2022-08-16T15:18:12.252Z,26.85
2022-08-16T15:20:41.185Z,27.80
2022-08-16T15:23:09.229Z,28.82
2022-08-16T15:25:57.680Z,27.71
2022-08-16T15:28:32.280Z,28.93
2022-08-16T15:31:03.609Z,28.00
2022-08-16T15:33:32.982Z,27.75
2022-08-16T15:36:00.555Z,28.30
2022-08-16T15:38:58.146Z,28.12
2022-08-16T15:41:43.688Z,28.52
2022-08-16T15:44:22.410Z,28.89
2022-08-16T15:46:56.941Z,28.59
2022-08-16T15:49:37.434Z,28.69
2022-08-16T15:52:18.148Z,29.34
2022-08-16T15:54:53.486Z,30.48
2022-08-16T15:57:27.024Z,30.46
2022-08-16T15:59:56.045Z,29.60
2022-08-16T16:02:30.828Z,30.57
2022-08-16T16:05:00.924Z,30.54
2022-08-16T16:07:29.936Z,29.96
2022-08-16T16:09:58.764Z,31.03
2022-08-16T16:12:56.310Z,32.11
2022-08-16T16:15:16.754Z,31.65
2022-08-16T16:17:44.038Z,32.54
2022-08-16T16:20:18.719Z,33.19
2022-08-16T16:22:46.320Z,33.75
2022-08-16T16:25:15.971Z,34.65
2022-08-16T16:27:44.007Z,35.29
2022-08-16T16:30:33.513Z,34.96
2022-08-16T16:33:01.047Z,34.55
2022-08-16T16:35:30.731Z,35.57
2022-08-16T16:38:00.190Z,35.50
2022-08-16T16:40:32.138Z,35.12
2022-08-16T16:43:00.352Z,35.25
2022-08-16T16:45:33.515Z,35.45
2022-08-16T16:48:12.039Z,35.47
2022-08-16T16:50:45.278Z,35.59
2022-08-16T16:53:17.134Z,35.58
2022-08-16T16:55:52.261Z,36.07
2022-08-16T16:58:43.491Z,36.29
2022-08-16T17:01:20.945Z,36.07
2022-08-16T17:04:19.359Z,35.73
2022-08-16T17:06:53.404Z,35.65
2022-08-16T17:09:23.769Z,35.86
2022-08-16T17:11:55.616Z,35.87
2022-08-16T17:14:33.234Z,36.64
2022-08-16T17:17:10.041Z,37.25
2022-08-16T17:19:41.021Z,37.70
2022-08-16T17:22:32.526Z,37.79
2022-08-16T17:25:00.350Z,38.41
2022-08-16T17:27:33.761Z,39.25
2022-08-16T17:30:15.995Z,39.49
2022-08-16T17:32:50.702Z,40.83
2022-08-16T17:35:36.600Z,41.02
2022-08-16T17:38:07.504Z,41.50
2022-08-16T17:40:57.719Z,42.19
2022-08-16T17:43:32.349Z,42.43
2022-08-16T17:45:59.909Z,43.08
2022-08-16T17:48:27.455Z,43.43
2022-08-16T17:50:54.533Z,43.95
2022-08-16T17:53:22.287Z,43.42
2022-08-16T17:55:50.478Z,44.28
2022-08-16T17:58:22.242Z,45.03
2022-08-16T18:00:53.068Z,45.00
2022-08-16T18:04:08.957Z,45.54
2022-08-16T18:06:15.798Z,46.05
2022-08-16T18:08:42.737Z,46.04
2022-08-16T18:11:10.396Z,46.46
2022-08-16T18:13:42.909Z,46.68
2022-08-16T18:16:10.380Z,47.07
2022-08-16T18:18:37.282Z,47.61
2022-08-16T18:21:22.925Z,47.43
2022-08-16T18:23:49.527Z,48.12
2022-08-16T18:26:16.140Z,48.11
2022-08-16T18:28:42.906Z,48.35
2022-08-16T18:31:09.650Z,48.21
2022-08-16T18:33:43.352Z,48.41
2022-08-16T18:36:20.535Z,48.26
2022-08-16T18:38:48.780Z,49.03
2022-08-16T18:41:15.964Z,48.68
2022-08-16T18:44:23.615Z,48.78
2022-08-16T18:46:29.506Z,49.02
2022-08-16T18:48:56.130Z,48.98
2022-08-16T18:51:25.276Z,49.56
2022-08-16T18:53:52.444Z,49.87
2022-08-16T18:56:19.678Z,49.96
2022-08-16T18:58:46.410Z,50.17
2022-08-16T19:01:13.275Z,50.63
2022-08-16T19:03:40.009Z,50.77
2022-08-16T19:06:11.964Z,50.68
2022-08-16T19:08:42.518Z,51.12
2022-08-16T19:11:20.000Z,51.51
2022-08-16T19:13:46.725Z,51.48
2022-08-16T19:16:14.556Z,51.79
2022-08-16T19:18:41.475Z,52.23
2022-08-16T19:21:14.524Z,52.42
2022-08-16T19:23:42.657Z,52.57
2022-08-16T19:26:23.402Z,53.04
2022-08-16T19:28:58.676Z,53.07
2022-08-16T19:31:32.750Z,53.28
2022-08-16T19:34:00.784Z,54.05
2022-08-16T19:36:35.171Z,54.29
2022-08-16T19:39:08.839Z,54.69
2022-08-16T19:41:39.083Z,54.77
2022-08-16T19:44:06.738Z,55.24
2022-08-16T19:46:34.094Z,55.99
2022-08-16T19:49:00.842Z,56.06
2022-08-16T19:51:28.272Z,56.62
2022-08-16T19:53:55.016Z,56.93
2022-08-16T19:56:23.921Z,57.25
2022-08-16T19:59:17.461Z,57.87
2022-08-16T20:01:42.048Z,58.21
2022-08-16T20:04:12.569Z,58.19
2022-08-16T20:06:39.726Z,58.71
2022-08-16T20:09:06.911Z,59.19
2022-08-16T20:11:34.857Z,59.31
2022-08-16T20:14:02.353Z,59.66
2022-08-16T20:16:29.533Z,60.53
2022-08-16T20:18:59.545Z,60.93
2022-08-16T20:21:26.290Z,61.23
2022-08-16T20:23:58.305Z,61.65
2022-08-16T20:26:36.841Z,61.75
2022-08-16T20:29:03.496Z,62.50
2022-08-16T20:31:30.217Z,62.65
2022-08-16T20:33:56.928Z,63.14
2022-08-16T20:36:24.539Z,63.84
2022-08-16T20:38:51.935Z,63.95
2022-08-16T20:41:19.116Z,64.39
2022-08-16T20:43:47.604Z,64.06
2022-08-16T20:46:14.677Z,64.64
2022-08-16T20:48:41.959Z,64.50
2022-08-16T20:51:10.752Z,64.35
2022-08-16T20:53:42.391Z,64.62
2022-08-16T20:56:10.472Z,64.88
2022-08-16T20:58:37.652Z,65.27
2022-08-16T21:01:05.506Z,65.00
2022-08-16T21:03:32.432Z,65.44
2022-08-16T21:06:02.192Z,65.54
2022-08-16T21:08:52.546Z,65.96
2022-08-16T21:11:16.399Z,66.08
2022-08-16T21:13:43.241Z,66.62
2022-08-16T21:16:09.984Z,66.60
2022-08-16T21:18:36.577Z,66.55
2022-08-16T21:21:03.351Z,66.81
2022-08-16T21:23:30.925Z,67.13
2022-08-16T21:25:59.706Z,67.01
2022-08-16T21:28:38.796Z,67.04
2022-08-16T21:31:10.875Z,67.15
2022-08-16T21:33:37.709Z,67.62
2022-08-16T21:36:04.575Z,67.92
2022-08-16T21:38:31.523Z,68.14
2022-08-16T21:41:00.209Z,68.50
2022-08-16T21:43:31.890Z,68.39
2022-08-16T21:46:00.151Z,68.58
2022-08-16T21:48:34.916Z,68.98
2022-08-16T21:51:08.377Z,69.09
2022-08-16T21:53:35.901Z,69.03
2022-08-16T21:56:03.942Z,69.30
2022-08-16T21:58:30.910Z,69.47
2022-08-16T22:01:07.229Z,69.85
2022-08-16T22:03:33.936Z,69.87
2022-08-16T22:06:13.225Z,70.15
2022-08-16T22:08:50.376Z,70.36
2022-08-16T22:11:22.926Z,70.40
2022-08-16T22:13:57.502Z,70.83
2022-08-16T22:16:29.829Z,71.12
2022-08-16T22:18:56.488Z,70.90
2022-08-16T22:21:23.438Z,70.98
2022-08-16T22:23:56.605Z,71.76
2022-08-16T22:26:33.813Z,72.17
2022-08-16T22:29:10.755Z,72.48
2022-08-16T22:31:39.548Z,72.98
2022-08-16T22:34:06.674Z,73.65
2022-08-16T22:36:34.317Z,73.94
2022-08-16T22:39:03.715Z,73.88
2022-08-16T22:41:32.762Z,74.35
2022-08-16T22:44:01.381Z,74.24
2022-08-16T22:46:28.500Z,74.72
2022-08-16T22:48:55.151Z,74.78
2022-08-16T22:51:23.909Z,74.75
2022-08-16T22:53:52.778Z,74.96
2022-08-16T22:56:20.924Z,75.30
2022-08-16T22:58:47.963Z,75.64
2022-08-16T23:01:17.183Z,75.83
2022-08-16T23:03:44.363Z,76.15
2022-08-16T23:06:12.510Z,76.09
2022-08-16T23:08:41.403Z,76.47
2022-08-16T23:11:10.839Z,76.47
2022-08-16T23:13:52.718Z,76.58
2022-08-16T23:16:33.796Z,76.82
2022-08-16T23:19:07.176Z,77.23
2022-08-16T23:21:37.136Z,77.31
2022-08-16T23:24:05.771Z,77.53
2022-08-16T23:26:36.376Z,77.81
2022-08-16T23:29:22.119Z,76.83
2022-08-16T23:31:53.878Z,77.55
2022-08-16T23:34:21.802Z,76.41
2022-08-16T23:36:48.622Z,76.19
2022-08-16T23:39:15.312Z,75.79
2022-08-16T23:41:42.146Z,75.86
2022-08-16T23:44:56.409Z,75.83
2022-08-16T23:46:55.788Z,75.47
2022-08-16T23:49:58.570Z,75.34
2022-08-16T23:52:09.929Z,75.04
2022-08-16T23:54:36.733Z,75.30
2022-08-16T23:57:03.896Z,74.80
2022-08-16T23:59:38.049Z,75.18
